Time;durP1;ratioP1;P1;durP2;ratioP2;P2;SDS_P1;SDS_P2;PMS_P1;PMS_P2;Temp;Humidity;BMP_temperature;BMP_pressure;BME280_temperature;BME280_humidity;BME280_pressure;Samples;Min_cycle;Max_cycle;Signal;HPM_P1;HPM_P2
2021/11/23 00:01:44;;;;;;;;;19.75;18.00;;;;;7.57;56.71;102432.84;5100628;27;45264;-69
2021/11/23 00:04:10;;;;;;;;;21.00;17.75;;;;;7.56;56.40;102433.72;5100794;27;45328;-69
2021/11/23 00:06:37;;;;;;;;;21.75;21.75;;;;;7.53;56.43;102417.72;5100744;27;45458;-69
2021/11/23 00:09:03;;;;;;;;;16.25;15.00;;;;;7.50;56.88;102426.59;5100745;27;45309;-69
2021/11/23 00:11:28;;;;;;;;;20.50;18.75;;;;;7.42;56.36;102417.69;5100588;27;45424;-69
2021/11/23 00:13:53;;;;;;;;;22.75;19.00;;;;;7.44;56.55;102425.66;5100028;27;45378;-70
2021/11/23 00:16:19;;;;;;;;;21.50;18.75;;;;;7.40;56.63;102424.72;5088266;27;45446;-69
2021/11/23 00:18:46;;;;;;;;;18.75;17.25;;;;;7.34;56.50;102414.94;5100508;27;45322;-70
2021/11/23 00:21:13;;;;;;;;;18.00;18.00;;;;;7.31;56.88;102414.91;5091712;27;45226;-70
2021/11/23 00:23:38;;;;;;;;;19.75;16.50;;;;;7.30;56.85;102409.59;5099200;27;45437;-69
2021/11/23 00:26:05;;;;;;;;;19.00;17.25;;;;;7.31;56.96;102412.25;5100226;27;45166;-70
2021/11/23 00:28:30;;;;;;;;;22.50;16.75;;;;;7.33;56.78;102425.56;5100299;27;45387;-69
2021/11/23 00:30:55;;;;;;;;;14.25;14.00;;;;;7.29;57.11;102418.44;5100431;27;45318;-70
2021/11/23 00:33:21;;;;;;;;;21.00;18.75;;;;;7.30;56.66;102414.91;5100342;27;45345;-69
2021/11/23 00:35:46;;;;;;;;;22.00;19.50;;;;;7.29;56.83;102411.38;5100099;27;45420;-69
2021/11/23 00:38:11;;;;;;;;;21.75;16.00;;;;;7.26;56.95;102391.84;5100467;27;45396;-69
2021/11/23 00:40:37;;;;;;;;;17.75;16.75;;;;;7.39;57.18;102423.84;5100273;27;45454;-70
2021/11/23 00:43:05;;;;;;;;;17.75;17.25;;;;;7.38;56.52;102416.75;5098605;27;45920;-70
2021/11/23 00:45:32;;;;;;;;;23.50;20.25;;;;;7.39;56.55;102413.22;5099972;27;45238;-69
2021/11/23 00:47:58;;;;;;;;;22.00;20.00;;;;;7.42;57.09;102412.34;5099860;27;45687;-70
2021/11/23 00:50:23;;;;;;;;;21.50;16.00;;;;;7.42;56.93;102413.25;5099584;27;45448;-69
2021/11/23 00:52:49;;;;;;;;;18.25;16.50;;;;;7.41;57.03;102407.91;5099894;27;45495;-70
2021/11/23 00:55:14;;;;;;;;;18.00;16.25;;;;;7.42;56.41;102407.91;5099823;27;46088;-70
2021/11/23 00:57:40;;;;;;;;;17.75;16.25;;;;;7.42;56.78;102412.34;5099923;27;45228;-70
2021/11/23 01:00:09;;;;;;;;;20.25;18.00;;;;;7.41;56.93;102421.19;5100046;27;45244;-70
2021/11/23 01:02:35;;;;;;;;;19.00;16.75;;;;;7.42;56.33;102415.91;5100119;27;45472;-69
2021/11/23 01:05:00;;;;;;;;;18.25;18.25;;;;;7.48;57.08;102422.13;5099901;27;45397;-69
2021/11/23 01:07:26;;;;;;;;;20.50;17.75;;;;;7.48;56.63;102415.03;5100054;27;45245;-70
2021/11/23 01:09:51;;;;;;;;;17.00;15.75;;;;;7.49;56.88;102413.28;5099988;27;45390;-69
2021/11/23 01:12:16;;;;;;;;;20.50;17.25;;;;;7.51;56.64;102420.38;5100599;27;45486;-69
2021/11/23 01:14:42;;;;;;;;;21.00;17.25;;;;;7.58;56.97;102418.66;5100484;27;45374;-69
2021/11/23 01:17:07;;;;;;;;;21.75;18.00;;;;;7.56;56.95;102409.78;5092108;27;45411;-69
2021/11/23 01:19:33;;;;;;;;;18.75;15.75;;;;;7.61;57.03;102426.66;5103510;27;45553;-69
2021/11/23 01:21:58;;;;;;;;;14.75;14.75;;;;;7.61;56.40;102416.03;5097582;27;45226;-70
2021/11/23 01:24:23;;;;;;;;;25.00;17.75;;;;;7.61;56.75;102424.88;5103046;27;45313;-70
2021/11/23 01:26:49;;;;;;;;;14.00;14.00;;;;;7.67;56.66;102426.69;5102922;27;45376;-69
2021/11/23 01:29:14;;;;;;;;;15.25;14.00;;;;;7.70;56.54;102421.41;5103248;27;45206;-69
2021/11/23 01:31:40;;;;;;;;;18.00;17.25;;;;;7.73;56.54;102418.75;5103031;27;45417;-69
2021/11/23 01:34:06;;;;;;;;;17.75;16.25;;;;;7.72;56.45;102417.00;5102924;27;46197;-70
2021/11/23 01:36:32;;;;;;;;;15.75;13.25;;;;;7.63;56.30;102400.97;5102879;27;45324;-69
2021/11/23 01:38:57;;;;;;;;;21.25;17.50;;;;;7.71;56.44;102432.94;5102900;27;46518;-70
2021/11/23 01:41:24;;;;;;;;;18.50;17.00;;;;;7.68;56.61;102424.94;5102949;27;46555;-69
2021/11/23 01:43:50;;;;;;;;;19.50;16.25;;;;;7.67;56.23;102412.50;5102084;27;45495;-69
2021/11/23 01:46:16;;;;;;;;;18.75;17.50;;;;;7.70;56.51;102420.50;5099418;27;45495;-70
2021/11/23 01:48:41;;;;;;;;;17.50;15.50;;;;;7.67;56.25;102405.44;5102790;27;45304;-70
2021/11/23 01:51:08;;;;;;;;;19.50;18.00;;;;;7.71;56.41;102415.19;5102338;27;45487;-69
2021/11/23 01:53:34;;;;;;;;;20.00;18.25;;;;;7.71;55.74;102423.16;5102487;27;46095;-69
2021/11/23 01:55:59;;;;;;;;;21.75;17.75;;;;;7.70;56.26;102420.50;5102719;27;45667;-69
2021/11/23 01:58:25;;;;;;;;;17.75;17.50;;;;;7.71;56.54;102428.50;5102627;27;45297;-70
2021/11/23 02:00:50;;;;;;;;;17.50;16.00;;;;;7.73;55.87;102439.13;5102285;27;45336;-69
2021/11/23 02:03:16;;;;;;;;;18.00;17.00;;;;;7.60;55.75;102427.53;5102345;27;46258;-69
2021/11/23 02:05:41;;;;;;;;;18.50;17.25;;;;;7.63;56.37;102432.84;5102512;27;45447;-69
2021/11/23 02:08:10;;;;;;;;;19.75;17.75;;;;;7.63;56.31;102432.84;5102445;27;45471;-69
2021/11/23 02:10:35;;;;;;;;;23.50;17.25;;;;;7.67;56.24;102432.03;5102365;27;45244;-69
2021/11/23 02:13:01;;;;;;;;;16.50;15.00;;;;;7.66;55.83;102440.88;5101874;27;46116;-69
2021/11/23 02:15:27;;;;;;;;;14.25;14.25;;;;;7.60;56.12;102428.44;5101414;27;45444;-69
2021/11/23 02:17:52;;;;;;;;;25.00;22.75;;;;;7.49;55.97;102423.91;5102254;27;45333;-69
2021/11/23 02:20:21;;;;;;;;;23.00;18.50;;;;;7.50;56.26;102433.66;5102412;27;45404;-69
2021/11/23 02:22:47;;;;;;;;;23.50;19.50;;;;;7.46;55.74;102423.91;5101371;27;46284;-69
2021/11/23 02:25:14;;;;;;;;;24.00;21.50;;;;;7.42;56.05;102423.00;5101761;27;45803;-69
2021/11/23 02:27:40;;;;;;;;;22.00;18.25;;;;;7.42;56.12;102431.84;5101773;27;45304;-69
2021/11/23 02:30:08;;;;;;;;;18.75;16.75;;;;;7.40;55.99;102436.25;5101757;27;45300;-69
2021/11/23 02:32:45;;;;;;;;;20.50;17.00;;;;;7.42;55.98;102431.84;5101943;27;45511;-69
2021/11/23 02:35:12;;;;;;;;;21.25;18.50;;;;;7.37;56.10;102424.72;5102143;27;45822;-69
2021/11/23 02:37:43;;;;;;;;;17.00;15.00;;;;;7.32;56.30;102416.72;5102153;27;45301;-69
2021/11/23 02:40:09;;;;;;;;;24.00;22.25;;;;;7.34;56.41;102430.00;5101957;27;45240;-69
2021/11/23 02:42:34;;;;;;;;;21.50;20.25;;;;;7.23;56.56;102413.97;5101199;27;45164;-69
2021/11/23 02:44:59;;;;;;;;;23.25;21.75;;;;;7.29;56.55;102410.50;5101150;27;45277;-69
2021/11/23 02:47:24;;;;;;;;;25.00;22.00;;;;;7.23;56.11;102403.34;5102069;27;45466;-69
2021/11/23 02:49:50;;;;;;;;;22.50;18.00;;;;;7.26;56.57;102405.16;5101337;27;45445;-69
2021/11/23 02:52:15;;;;;;;;;23.50;21.50;;;;;7.25;56.17;102412.22;5100566;27;45964;-69
2021/11/23 02:54:53;;;;;;;;;21.00;16.25;;;;;7.29;56.13;102408.72;5101506;27;45421;-69
2021/11/23 02:57:30;;;;;;;;;18.75;18.00;;;;;7.31;55.94;102417.56;5095835;27;45465;-69
2021/11/23 02:59:55;;;;;;;;;17.00;16.50;;;;;7.31;56.46;102404.28;5101049;27;45460;-69
2021/11/23 03:02:21;;;;;;;;;21.25;18.00;;;;;7.23;55.96;102395.38;5101299;27;45361;-69
2021/11/23 03:04:54;;;;;;;;;21.25;16.00;;;;;7.26;55.96;102406.03;5100859;27;45203;-69
2021/11/23 03:07:21;;;;;;;;;22.00;18.00;;;;;7.16;55.72;102415.69;5099763;27;45259;-69
2021/11/23 03:09:46;;;;;;;;;20.75;17.00;;;;;7.17;56.28;102396.22;5100032;27;45423;-69
2021/11/23 03:12:18;;;;;;;;;20.25;17.00;;;;;7.24;56.34;102407.78;5101185;27;46023;-69
2021/11/23 03:14:44;;;;;;;;;18.25;17.00;;;;;7.28;55.78;102409.56;5097907;27;45457;-69
2021/11/23 03:17:10;;;;;;;;;21.50;17.00;;;;;7.28;55.78;102406.03;5090477;27;45368;-69
2021/11/23 03:19:36;;;;;;;;;18.25;16.25;;;;;7.33;56.02;102402.53;5101387;27;45230;-69
2021/11/23 03:22:02;;;;;;;;;18.00;17.00;;;;;7.30;56.35;102393.66;5095785;27;46039;-69
2021/11/23 03:24:29;;;;;;;;;20.25;17.50;;;;;7.34;56.06;102392.81;5100666;27;45233;-69
2021/11/23 03:26:55;;;;;;;;;21.50;18.00;;;;;7.29;55.50;102392.78;5099824;27;45687;-69
2021/11/23 03:29:20;;;;;;;;;16.25;15.25;;;;;7.31;55.46;102388.34;5101381;27;45532;-69
2021/11/23 03:31:45;;;;;;;;;17.00;16.50;;;;;7.32;55.58;102395.44;5101284;27;45404;-69
2021/11/23 03:34:11;;;;;;;;;20.50;17.00;;;;;7.19;55.35;102386.50;5101070;27;45342;-69
2021/11/23 03:36:40;;;;;;;;;15.25;14.25;;;;;7.21;55.26;102381.19;5100886;27;45542;-69
2021/11/23 03:39:06;;;;;;;;;17.50;15.50;;;;;7.23;54.89;102393.63;5101064;27;45428;-69
2021/11/23 03:41:32;;;;;;;;;17.75;14.75;;;;;7.20;55.63;102382.06;5100508;27;45706;-69
2021/11/23 03:43:58;;;;;;;;;23.25;15.00;;;;;7.20;55.24;102384.72;5100769;27;45214;-69
2021/11/23 03:46:23;;;;;;;;;18.50;16.00;;;;;7.27;55.24;102401.59;5101098;27;45284;-69
2021/11/23 03:48:49;;;;;;;;;14.25;14.25;;;;;7.21;55.01;102391.81;5098780;27;45209;-69
2021/11/23 03:51:14;;;;;;;;;15.25;13.50;;;;;7.22;55.34;102394.50;5100742;27;46000;-70
2021/11/23 03:53:39;;;;;;;;;18.25;14.50;;;;;7.20;54.74;102384.72;5100938;27;45120;-69
2021/11/23 03:56:05;;;;;;;;;15.00;14.00;;;;;7.21;55.01;102379.41;5101123;27;45263;-69
2021/11/23 03:58:30;;;;;;;;;11.50;9.75;;;;;7.17;54.93;102372.31;5100118;27;45520;-69
2021/11/23 04:00:56;;;;;;;;;19.00;17.00;;;;;7.20;54.96;102382.06;5100726;27;45325;-69
2021/11/23 04:03:21;;;;;;;;;16.50;12.50;;;;;7.18;55.16;102392.69;5100865;27;45289;-69
2021/11/23 04:05:46;;;;;;;;;13.00;13.00;;;;;7.12;54.72;102384.66;5100422;27;45405;-69
2021/11/23 04:08:12;;;;;;;;;17.25;17.25;;;;;7.12;55.01;102383.78;5100408;27;45377;-69
2021/11/23 04:10:37;;;;;;;;;19.00;16.00;;;;;7.16;54.59;102393.56;5100403;27;45488;-69
2021/11/23 04:13:03;;;;;;;;;18.00;15.50;;;;;7.16;54.64;102391.78;5100011;27;45322;-70
2021/11/23 04:15:28;;;;;;;;;15.75;14.25;;;;;7.17;54.57;102390.03;5095497;27;45364;-69
2021/11/23 04:17:53;;;;;;;;;19.75;16.50;;;;;7.15;54.53;102391.75;5100295;27;45308;-69
2021/11/23 04:20:19;;;;;;;;;17.25;16.00;;;;;7.17;54.29;102385.59;5096324;27;46113;-69
2021/11/23 04:22:44;;;;;;;;;17.50;14.25;;;;;7.19;54.46;102393.56;5099335;27;45313;-69
2021/11/23 04:25:11;;;;;;;;;13.25;12.00;;;;;7.21;54.97;102391.81;5100087;27;45934;-69
2021/11/23 04:27:37;;;;;;;;;18.00;16.00;;;;;7.21;54.54;102394.47;5100104;27;45368;-70
2021/11/23 04:30:05;;;;;;;;;13.75;12.25;;;;;7.18;54.22;102402.41;5099755;27;45249;-69
2021/11/23 04:32:30;;;;;;;;;17.00;12.25;;;;;7.18;54.56;102400.66;5099662;27;45650;-69
2021/11/23 04:34:56;;;;;;;;;14.00;13.75;;;;;7.14;54.12;102382.03;5100240;27;45258;-69
2021/11/23 04:37:21;;;;;;;;;17.25;14.25;;;;;7.15;54.79;102391.75;5100294;27;45318;-69
2021/11/23 04:39:49;;;;;;;;;18.25;15.25;;;;;7.16;54.48;102385.59;5100276;27;45400;-69
2021/11/23 04:42:14;;;;;;;;;15.75;14.25;;;;;7.24;54.34;102394.50;5099462;27;45923;-69
2021/11/23 04:44:39;;;;;;;;;11.50;11.00;;;;;7.26;54.86;102394.53;5096943;27;45380;-69
2021/11/23 04:47:05;;;;;;;;;15.75;15.25;;;;;7.26;54.66;102391.84;5099559;27;45382;-69
2021/11/23 04:49:30;;;;;;;;;2.75;0.75;;;;;7.23;54.33;102390.06;5101731;27;45544;-69
2021/11/23 04:51:56;;;;;;;;;14.00;13.00;;;;;7.21;54.21;102391.81;5102288;27;45260;-69
2021/11/23 04:54:21;;;;;;;;;19.00;16.25;;;;;7.23;54.32;102390.06;5102063;27;45371;-69
2021/11/23 04:56:46;;;;;;;;;16.75;15.00;;;;;7.26;54.72;102407.78;5102775;27;45297;-69
2021/11/23 04:59:11;;;;;;;;;14.00;12.50;;;;;7.29;54.72;102403.41;5102830;27;45693;-69
2021/11/23 05:01:38;;;;;;;;;20.25;17.50;;;;;7.30;54.82;102397.22;5103267;27;45242;-69
2021/11/23 05:04:04;;;;;;;;;14.50;13.75;;;;;7.30;54.11;102402.53;5103925;27;45532;-69
2021/11/23 05:06:30;;;;;;;;;19.25;16.50;;;;;7.24;53.95;102406.00;5103700;27;45459;-69
2021/11/23 05:08:55;;;;;;;;;15.75;11.00;;;;;7.13;54.39;102385.56;5103610;27;45424;-69
2021/11/23 05:11:21;;;;;;;;;13.00;13.00;;;;;7.09;54.47;102392.59;5103420;27;45362;-69
2021/11/23 05:13:47;;;;;;;;;19.75;14.25;;;;;7.15;54.28;102407.69;5103186;27;45476;-69
2021/11/23 05:16:12;;;;;;;;;12.75;12.00;;;;;7.13;54.49;102396.19;5102383;27;45629;-69
2021/11/23 05:18:37;;;;;;;;;14.00;13.00;;;;;7.12;54.26;102405.91;5102263;27;45392;-69
2021/11/23 05:21:03;;;;;;;;;20.75;18.00;;;;;7.09;54.67;102397.91;5103037;27;45339;-69
2021/11/23 05:23:28;;;;;;;;;13.50;13.00;;;;;7.09;54.39;102395.25;5103658;27;45352;-69
2021/11/23 05:25:56;;;;;;;;;16.25;13.50;;;;;7.09;54.41;102392.59;5102909;27;45545;-69
2021/11/23 05:28:21;;;;;;;;;16.00;11.50;;;;;7.12;54.36;102408.56;5103252;27;45259;-69
2021/11/23 05:30:48;;;;;;;;;13.25;12.25;;;;;7.09;54.35;102405.88;5103133;27;45249;-69
2021/11/23 05:33:14;;;;;;;;;14.50;12.75;;;;;7.11;54.18;102404.13;5103478;27;45286;-69
2021/11/23 05:35:39;;;;;;;;;15.00;14.25;;;;;7.09;54.23;102423.59;5103104;27;45590;-69
2021/11/23 05:38:04;;;;;;;;;14.75;14.75;;;;;7.03;53.70;102422.66;5103196;27;46282;-69
2021/11/23 05:40:30;;;;;;;;;11.00;11.00;;;;;7.02;54.39;102410.25;5102798;27;45361;-69
2021/11/23 05:42:55;;;;;;;;;16.00;13.00;;;;;6.91;53.87;102403.94;5102671;27;45438;-69
2021/11/23 05:45:20;;;;;;;;;15.50;14.75;;;;;6.90;54.10;102420.78;5102793;27;45401;-69
2021/11/23 05:47:46;;;;;;;;;15.00;13.00;;;;;6.95;54.76;102419.03;5103005;27;45389;-69
2021/11/23 05:50:11;;;;;;;;;17.25;15.00;;;;;6.96;53.96;102423.47;5102062;27;46365;-69
2021/11/23 05:52:37;;;;;;;;;15.00;15.00;;;;;6.96;54.57;102415.50;5102030;27;45404;-69
2021/11/23 05:55:03;;;;;;;;;17.00;15.00;;;;;6.95;54.42;102404.84;5101402;27;45374;-69
2021/11/23 05:57:28;;;;;;;;;19.00;14.75;;;;;7.01;54.58;102427.03;5101397;27;46438;-69
2021/11/23 05:59:54;;;;;;;;;18.50;16.50;;;;;7.02;54.38;102427.97;5101089;27;45383;-69
2021/11/23 06:02:19;;;;;;;;;19.00;18.25;;;;;7.01;53.82;102435.00;5101853;27;45447;-69
2021/11/23 06:04:44;;;;;;;;;18.75;15.50;;;;;6.94;54.48;102425.22;5101459;27;45338;-69
2021/11/23 06:07:10;;;;;;;;;15.50;13.25;;;;;7.01;54.31;102428.81;5101645;27;45364;-69
2021/11/23 06:09:35;;;;;;;;;20.75;16.50;;;;;7.07;54.54;102443.91;5101382;27;45177;-69
2021/11/23 06:12:00;;;;;;;;;15.75;13.50;;;;;7.03;54.77;102427.97;5100976;27;45233;-69
2021/11/23 06:14:26;;;;;;;;;12.00;12.00;;;;;7.07;54.11;102438.59;5101194;27;45460;-69
2021/11/23 06:16:51;;;;;;;;;21.25;18.50;;;;;7.05;54.42;102426.22;5101165;27;45330;-69
2021/11/23 06:19:17;;;;;;;;;13.00;12.50;;;;;6.97;53.67;102435.00;5101224;27;45396;-69
2021/11/23 06:21:42;;;;;;;;;13.50;12.00;;;;;6.88;53.60;102433.13;5097871;27;45225;-69
2021/11/23 06:24:09;;;;;;;;;15.50;13.25;;;;;6.85;54.29;102431.34;5101087;27;45545;-69
2021/11/23 06:26:35;;;;;;;;;14.25;12.75;;;;;6.82;53.99;102423.34;5100942;27;45564;-69
2021/11/23 06:29:01;;;;;;;;;17.00;12.00;;;;;6.85;54.39;102425.16;5100784;27;45317;-69
2021/11/23 06:31:26;;;;;;;;;15.00;12.25;;;;;6.88;54.13;102426.91;5101125;27;45345;-69
2021/11/23 06:33:54;;;;;;;;;14.00;14.00;;;;;6.90;54.24;102428.72;5100849;27;45509;-69
2021/11/23 06:36:20;;;;;;;;;11.50;11.00;;;;;6.91;53.80;102433.16;5101000;27;46484;-69
2021/11/23 06:38:46;;;;;;;;;15.00;10.00;;;;;6.88;53.27;102446.38;5100883;27;45292;-69
2021/11/23 06:41:12;;;;;;;;;16.50;13.00;;;;;6.89;54.53;102431.38;5100885;27;45242;-69
2021/11/23 06:43:38;;;;;;;;;13.75;12.00;;;;;6.85;53.86;102433.09;5100285;27;46091;-69
2021/11/23 06:46:03;;;;;;;;;19.00;16.25;;;;;6.82;53.93;102436.59;5100617;27;46353;-69
2021/11/23 06:48:29;;;;;;;;;10.50;10.00;;;;;6.91;53.81;102448.19;5099591;27;45452;-69
2021/11/23 06:50:55;;;;;;;;;15.00;12.00;;;;;6.87;53.10;102444.63;5059021;27;1110213;-70
2021/11/23 06:53:20;;;;;;;;;15.25;13.50;;;;;6.83;53.57;102448.09;5101691;27;45550;-69
2021/11/23 06:55:46;;;;;;;;;12.75;10.50;;;;;6.84;53.31;102455.22;5101644;27;45344;-70
2021/11/23 06:58:11;;;;;;;;;15.25;12.50;;;;;6.84;53.41;102455.22;5101576;27;45485;-69
2021/11/23 07:00:39;;;;;;;;;7.00;7.00;;;;;6.86;53.88;102461.41;5101912;27;45316;-69
2021/11/23 07:03:04;;;;;;;;;11.00;11.00;;;;;6.87;53.63;102460.56;5101769;27;45638;-69
2021/11/23 07:05:30;;;;;;;;;14.75;13.00;;;;;6.84;53.73;102461.41;5101544;27;46034;-69
2021/11/23 07:07:57;;;;;;;;;11.25;10.50;;;;;6.83;53.17;102461.38;5101606;27;45238;-68
2021/11/23 07:10:23;;;;;;;;;10.50;9.75;;;;;6.83;53.16;102458.72;5100157;27;45244;-69
2021/11/23 07:12:49;;;;;;;;;10.25;10.25;;;;;6.90;53.45;102471.22;5097827;27;45559;-71
2021/11/23 07:15:14;;;;;;;;;18.75;17.00;;;;;6.90;53.22;102462.34;5099910;27;46085;-71
2021/11/23 07:17:40;;;;;;;;;8.00;8.00;;;;;6.95;53.42;102466.84;5100680;27;45624;-71
2021/11/23 07:20:06;;;;;;;;;15.00;10.75;;;;;6.89;52.66;102460.56;5098757;27;47440;-71
2021/11/23 07:22:32;;;;;;;;;13.50;11.00;;;;;6.82;52.92;102452.53;5093686;27;45494;-71
2021/11/23 07:24:57;;;;;;;;;10.75;9.25;;;;;6.84;52.90;102464.06;5100892;27;45412;-71
2021/11/23 07:27:23;;;;;;;;;10.75;8.50;;;;;6.85;53.22;102467.63;5099357;27;45439;-71
2021/11/23 07:29:48;;;;;;;;;13.75;12.50;;;;;6.87;53.57;102473.81;5100020;27;45385;-74
2021/11/23 07:32:14;;;;;;;;;17.25;14.75;;;;;6.88;53.27;102478.25;5101347;27;45613;-73
2021/11/23 07:34:40;;;;;;;;;11.50;10.75;;;;;6.87;53.66;102465.88;5101151;27;45648;-73
2021/11/23 07:37:07;;;;;;;;;11.75;11.75;;;;;6.83;53.37;102475.56;5097044;27;45665;-73
2021/11/23 07:39:32;;;;;;;;;9.50;8.25;;;;;6.91;53.01;102493.31;5101216;27;45327;-71
2021/11/23 07:41:58;;;;;;;;;10.00;8.75;;;;;6.88;52.66;102504.78;5100451;27;45224;-72
2021/11/23 07:44:23;;;;;;;;;12.25;10.00;;;;;6.82;52.87;102491.47;5100228;27;45959;-72
2021/11/23 07:46:49;;;;;;;;;11.00;10.00;;;;;6.82;53.34;102504.75;5101149;27;45280;-72
2021/11/23 07:49:14;;;;;;;;;10.25;7.00;;;;;6.84;52.60;102501.22;5099765;27;45477;-73
2021/11/23 07:51:40;;;;;;;;;9.75;7.75;;;;;6.84;53.04;102518.91;5100583;27;45400;-73
2021/11/23 07:54:06;;;;;;;;;12.25;10.25;;;;;6.78;52.70;102511.78;5099453;27;46316;-72
2021/11/23 07:56:32;;;;;;;;;11.75;8.00;;;;;6.81;52.95;102524.19;5098937;27;45300;-75
2021/11/23 07:58:57;;;;;;;;;17.50;11.25;;;;;6.77;52.38;102523.25;5098700;27;45396;-68
2021/11/23 08:01:23;;;;;;;;;11.25;10.25;;;;;6.78;52.61;102526.78;5100302;27;45440;-72
2021/11/23 08:03:48;;;;;;;;;15.50;11.50;;;;;6.79;53.10;102517.97;5100476;27;46291;-73
2021/11/23 08:06:14;;;;;;;;;10.25;7.25;;;;;6.80;52.60;102528.63;5100822;27;45292;-73
2021/11/23 08:08:40;;;;;;;;;11.00;7.50;;;;;6.75;52.63;102519.72;5100684;27;45516;-72
2021/11/23 08:11:06;;;;;;;;;9.75;8.50;;;;;6.73;52.86;102539.13;5100838;27;45300;-73
2021/11/23 08:13:32;;;;;;;;;9.25;9.00;;;;;6.71;52.34;102527.59;5092155;27;45364;-72
2021/11/23 08:16:03;;;;;;;;;11.00;9.75;;;;;6.71;52.46;102541.75;5094402;27;45251;-73
2021/11/23 08:18:30;;;;;;;;;7.00;7.00;;;;;6.66;52.39;102523.13;5100176;27;45723;-73
2021/11/23 08:20:56;;;;;;;;;7.25;7.25;;;;;6.79;53.00;102529.47;5092529;27;45568;-72
2021/11/23 08:23:21;;;;;;;;;7.00;6.50;;;;;6.84;52.08;102534.84;5093088;27;45897;-73
2021/11/23 08:25:47;;;;;;;;;7.00;7.00;;;;;6.80;52.01;102528.63;5099422;27;45400;-72
2021/11/23 08:28:13;;;;;;;;;8.50;7.00;;;;;6.79;52.51;102537.44;5099901;27;45446;-71
2021/11/23 08:30:39;;;;;;;;;7.25;5.25;;;;;6.79;51.81;102536.56;5100013;27;45393;-71
2021/11/23 08:33:05;;;;;;;;;10.50;7.50;;;;;6.75;51.96;102532.06;5099734;27;45475;-73
2021/11/23 08:35:31;;;;;;;;;10.00;9.00;;;;;6.77;52.42;102538.31;5099693;27;45437;-74
2021/11/23 08:37:56;;;;;;;;;9.75;7.25;;;;;6.76;51.54;102528.53;5100041;27;45682;-73
2021/11/23 08:40:21;;;;;;;;;7.75;7.75;;;;;6.82;51.74;102537.47;5099705;27;45478;-73
2021/11/23 08:42:47;;;;;;;;;10.75;7.25;;;;;6.89;52.36;102540.22;5099439;27;45414;-73
2021/11/23 08:45:12;;;;;;;;;7.75;6.00;;;;;6.90;51.07;102536.66;5090064;27;45463;-73
2021/11/23 08:47:38;;;;;;;;;7.00;7.00;;;;;6.83;51.76;102528.66;5100125;27;45688;-74
2021/11/23 08:50:06;;;;;;;;;7.25;6.75;;;;;6.88;51.96;102534.00;5098672;27;45511;-73
2021/11/23 08:52:33;;;;;;;;;7.75;7.75;;;;;6.88;51.74;102536.66;5097204;27;46585;-73
2021/11/23 08:54:58;;;;;;;;;8.00;7.00;;;;;6.79;51.51;102526.81;5097953;27;45229;-73
2021/11/23 08:57:24;;;;;;;;;7.00;7.00;;;;;6.81;50.50;102532.16;5099577;27;45388;-73
2021/11/23 08:59:51;;;;;;;;;8.50;7.50;;;;;6.81;51.54;102529.50;5099235;27;45225;-74
2021/11/23 09:02:17;;;;;;;;;7.25;5.50;;;;;6.87;50.72;102540.19;5098897;27;45994;-74
2021/11/23 09:04:43;;;;;;;;;6.25;5.25;;;;;6.84;51.05;102533.06;5098769;27;45640;-74
2021/11/23 09:07:12;;;;;;;;;10.00;6.75;;;;;6.89;50.92;102537.56;5098510;27;45714;-74
2021/11/23 09:09:41;;;;;;;;;7.75;6.00;;;;;6.88;51.66;102536.66;5103875;27;45427;-74
2021/11/23 09:12:07;;;;;;;;;7.25;6.75;;;;;6.94;51.05;102531.41;5107397;27;47258;-74
2021/11/23 09:14:34;;;;;;;;;7.00;6.00;;;;;6.95;51.36;102527.00;5088940;27;45952;-74
2021/11/23 09:17:01;;;;;;;;;11.50;6.75;;;;;7.00;51.48;102535.91;5099563;27;45723;-74
2021/11/23 09:19:27;;;;;;;;;7.25;7.00;;;;;6.89;50.74;102525.16;5098301;27;45368;-74
2021/11/23 09:21:53;;;;;;;;;5.50;5.50;;;;;6.99;50.43;102545.63;5091389;27;46195;-74
2021/11/23 09:24:21;;;;;;;;;5.50;5.50;;;;;7.04;50.92;102549.22;5098769;27;45781;-74
2021/11/23 09:26:46;;;;;;;;;6.25;6.00;;;;;7.03;50.20;102543.91;5098867;27;45445;-74
2021/11/23 09:29:13;;;;;;;;;1.00;0.00;;;;;7.08;50.29;102542.19;5099013;27;45399;-74
2021/11/23 09:31:39;;;;;;;;;7.50;5.00;;;;;7.11;50.33;102539.56;5099104;27;45967;-74
2021/11/23 09:34:04;;;;;;;;;3.00;3.00;;;;;7.16;50.17;102548.47;5099514;27;45421;-71
2021/11/23 09:36:30;;;;;;;;;4.75;4.75;;;;;7.10;49.60;102532.50;5101486;27;45529;-71
2021/11/23 09:38:55;;;;;;;;;6.25;5.00;;;;;7.19;50.04;102548.50;5101756;27;45287;-71
2021/11/23 09:41:21;;;;;;;;;3.50;2.50;;;;;7.20;49.59;102541.41;5102113;27;45210;-72
2021/11/23 09:43:46;;;;;;;;;5.50;3.00;;;;;7.22;49.35;102545.88;5100734;27;45317;-73
2021/11/23 09:46:12;;;;;;;;;6.25;3.00;;;;;7.29;48.87;102552.16;5102512;27;45231;-74
2021/11/23 09:48:42;;;;;;;;;4.50;3.00;;;;;7.31;49.55;102549.50;5101315;27;45337;-71
2021/11/23 09:51:19;;;;;;;;;1.75;1.75;;;;;7.37;49.05;102557.56;5102066;27;46284;-72
2021/11/23 09:53:44;;;;;;;;;2.75;2.00;;;;;7.28;48.42;102546.81;5101184;27;45768;-71
2021/11/23 09:56:12;;;;;;;;;2.50;2.00;;;;;7.38;48.79;102546.94;5099992;27;45511;-71
2021/11/23 09:58:37;;;;;;;;;2.00;2.00;;;;;7.35;48.43;102535.38;5100713;27;45287;-71
2021/11/23 10:01:08;;;;;;;;;4.50;2.50;;;;;7.47;48.04;102553.19;5101518;27;45294;-72
2021/11/23 10:03:34;;;;;;;;;2.00;2.00;;;;;7.50;48.20;102545.25;5088303;27;45536;-71
2021/11/23 10:06:06;;;;;;;;;1.75;1.75;;;;;7.56;47.95;102553.28;5102122;27;45357;-78
2021/11/23 10:08:32;;;;;;;;;2.00;2.00;;;;;7.55;48.06;102543.53;5101181;27;45460;-75
2021/11/23 10:10:57;;;;;;;;;2.75;1.75;;;;;7.60;47.99;102536.47;5101620;27;46109;-74
2021/11/23 10:13:39;;;;;;;;;1.00;1.00;;;;;7.73;47.99;102538.38;5094156;27;45441;-80
2021/11/23 10:16:04;;;;;;;;;1.00;1.00;;;;;7.74;47.38;102534.84;5095868;27;45264;-79
2021/11/23 10:18:30;;;;;;;;;1.00;1.00;;;;;7.78;47.63;102531.34;5097825;27;45408;-75
2021/11/23 10:20:57;;;;;;;;;3.25;2.00;;;;;7.85;47.37;102539.34;5100737;27;46260;-73
2021/11/23 10:23:25;;;;;;;;;3.75;1.25;;;;;7.87;47.38;102540.25;5101855;27;45680;-75
2021/11/23 10:26:08;;;;;;;;;1.50;1.50;;;;;7.89;47.55;102528.75;5098853;27;45454;-72
2021/11/23 10:28:34;;;;;;;;;1.00;1.00;;;;;7.86;47.28;102510.13;5100257;27;45758;-73
2021/11/23 10:31:01;;;;;;;;;1.25;1.25;;;;;8.01;47.20;102549.22;5095147;27;46328;-77
2021/11/23 10:33:27;;;;;;;;;2.50;2.50;;;;;8.03;47.38;102541.25;5098809;27;45428;-75
2021/11/23 10:35:58;;;;;;;;;1.50;1.00;;;;;8.04;46.84;102530.63;5101468;27;45441;-76
2021/11/23 10:38:24;;;;;;;;;1.00;1.00;;;;;8.08;46.94;102529.75;5102040;27;45466;-76
2021/11/23 10:40:50;;;;;;;;;1.25;1.25;;;;;8.07;46.86;102517.38;5101638;27;46062;-77
2021/11/23 10:43:20;;;;;;;;;1.00;1.00;;;;;8.09;46.74;102528.03;5101633;27;45468;-76
2021/11/23 10:45:48;;;;;;;;;3.00;1.00;;;;;8.12;46.43;102522.72;5099692;27;45358;-76
2021/11/23 10:48:17;;;;;;;;;2.00;0.75;;;;;8.13;46.43;102520.03;5101442;27;45396;-77
2021/11/23 10:50:57;;;;;;;;;4.00;3.00;;;;;8.13;46.98;102504.09;5099755;27;45467;-76
2021/11/23 10:53:23;;;;;;;;;0.75;0.75;;;;;8.23;46.71;102512.13;5101762;27;45583;-76
2021/11/23 10:55:49;;;;;;;;;1.75;1.75;;;;;8.25;46.43;102507.69;5101541;27;45350;-76
2021/11/23 10:58:15;;;;;;;;;2.50;2.00;;;;;8.29;46.93;102501.53;5101401;27;45792;-76
2021/11/23 11:00:44;;;;;;;;;1.25;1.00;;;;;8.33;47.08;102505.97;5101587;27;45319;-76
2021/11/23 11:03:12;;;;;;;;;1.00;0.00;;;;;8.37;46.29;102501.56;5100500;27;45332;-77
2021/11/23 11:05:41;;;;;;;;;1.50;1.50;;;;;8.38;46.31;102501.56;5101275;27;45460;-76
2021/11/23 11:08:08;;;;;;;;;1.50;1.50;;;;;8.38;46.50;102498.03;5101561;27;45413;-76
2021/11/23 11:10:35;;;;;;;;;2.50;1.50;;;;;8.39;46.38;102490.06;5101096;27;45956;-76
2021/11/23 11:13:02;;;;;;;;;1.75;1.75;;;;;8.47;46.52;102493.66;5097366;27;45381;-76
2021/11/23 11:16:03;;;;;;;;;3.00;2.00;;;;;8.59;46.71;102491.94;5090671;27;45837;-76
2021/11/23 11:18:29;;;;;;;;;2.00;1.75;;;;;8.60;46.81;102480.41;5074354;28;45584;-76